Time;durP1;ratioP1;P1;durP2;ratioP2;P2;SDS_P1;SDS_P2;PMS_P1;PMS_P2;Temp;Humidity;BMP_temperature;BMP_pressure;BME280_temperature;BME280_humidity;BME280_pressure;Samples;Min_cycle;Max_cycle;Signal;HPM_P1;HPM_P2
2022/01/20 00:00:44;;;;;;;1038.53;423.92;;;3.80;99.90;;;;;;4960921;28;20054;-82
2022/01/20 00:03:16;;;;;;;1050.00;441.90;;;4.60;99.90;;;;;;4957173;28;20061;-83
2022/01/20 00:27:11;;;;;;;1049.22;438.63;;;3.70;99.90;;;;;;4959697;28;20146;-83
2022/01/20 00:32:27;;;;;;;1053.82;435.48;;;3.70;99.90;;;;;;4957826;28;20082;-84
2022/01/20 00:37:30;;;;;;;1056.97;441.63;;;3.70;99.90;;;;;;4954000;28;20126;-86
2022/01/20 00:39:56;;;;;;;;;;;3.70;99.90;;;;;;4957986;28;20050;-85
2022/01/20 00:42:22;;;;;;;1057.30;443.52;;;3.70;99.90;;;;;;4958244;28;19918;-85
2022/01/20 00:44:48;;;;;;;1057.60;442.42;;;3.70;99.90;;;;;;4954390;28;20130;-85
2022/01/20 00:47:14;;;;;;;1061.70;443.45;;;3.70;99.90;;;;;;4961911;28;20054;-85
2022/01/20 00:49:42;;;;;;;1047.65;434.23;;;4.40;99.90;;;;;;4959178;28;20050;-85
2022/01/20 00:52:08;;;;;;;1059.72;445.23;;;3.70;99.90;;;;;;4957160;28;20051;-85
2022/01/20 00:54:34;;;;;;;1050.38;431.88;;;3.70;99.90;;;;;;4962237;28;20067;-85
2022/01/20 00:57:00;;;;;;;1060.53;439.20;;;3.80;99.90;;;;;;4961876;28;20131;-85
2022/01/20 00:59:27;;;;;;;1054.32;437.95;;;3.80;99.90;;;;;;4956894;28;20130;-86
2022/01/20 01:01:54;;;;;;;1062.57;443.58;;;3.80;99.90;;;;;;4957277;28;20075;-87
2022/01/20 01:04:20;;;;;;;1059.07;440.13;;;3.90;99.90;;;;;;4956617;28;20141;-82
2022/01/20 01:07:48;;;;;;;1068.00;448.42;;;4.00;99.90;;;;;;4959185;28;20553;-87
2022/01/20 01:09:41;;;;;;;1039.47;425.35;;;4.00;99.90;;;;;;4943790;28;20499;-87
2022/01/20 01:12:13;;;;;;;1026.65;419.02;;;3.90;99.90;;;;;;4958248;28;20086;-84
2022/01/20 01:14:44;;;;;;;1028.65;423.70;;;3.80;99.90;;;;;;4961552;28;20041;-89
2022/01/20 01:24:47;;;;;;;1023.20;419.98;;;3.50;99.90;;;;;;4956941;28;20097;-83
2022/01/20 01:27:13;;;;;;;1021.55;413.75;;;3.50;99.90;;;;;;4960303;28;20460;-87
2022/01/20 01:32:41;;;;;;;1026.05;426.75;;;3.40;99.90;;;;;;4953062;28;20768;-82
2022/01/20 01:35:09;;;;;;;1003.15;406.42;;;3.30;99.90;;;;;;4955435;28;20585;-86
2022/01/20 01:42:48;;;;;;;1012.47;413.08;;;3.30;99.90;;;;;;5379688;23;20058;-84
2022/01/20 01:45:27;;;;;;;1011.33;408.40;;;3.30;99.90;;;;;;4952444;28;20101;-85
2022/01/20 01:47:54;;;;;;;1023.22;428.27;;;3.30;99.90;;;;;;4954228;28;20051;-86
2022/01/20 01:50:20;;;;;;;1017.28;417.48;;;3.30;99.90;;;;;;4947698;28;20344;-86
2022/01/20 01:52:46;;;;;;;1014.75;416.98;;;3.40;99.90;;;;;;4948522;28;20054;-84
2022/01/20 01:55:13;;;;;;;1028.57;423.77;;;3.40;99.90;;;;;;4968825;28;20062;-83
2022/01/20 01:57:38;;;;;;;1035.15;421.50;;;3.40;99.90;;;;;;4946751;28;20070;-84
2022/01/20 02:00:07;;;;;;;1016.58;421.75;;;3.40;99.90;;;;;;4946892;28;20070;-83
2022/01/20 02:02:33;;;;;;;1007.25;410.65;;;3.40;99.90;;;;;;4945287;28;20148;-87
2022/01/20 02:04:59;;;;;;;1000.90;409.13;;;3.40;99.90;;;;;;4948302;28;20522;-84
2022/01/20 02:18:37;;;;;;;994.30;402.52;;;3.40;99.90;;;;;;4963220;28;20043;-84
2022/01/20 02:21:05;;;;;;;993.05;402.60;;;3.40;99.90;;;;;;4945423;28;20059;-82
2022/01/20 02:23:31;;;;;;;987.75;395.40;;;3.30;99.90;;;;;;4965245;28;20133;-85
2022/01/20 02:25:57;;;;;;;999.92;400.65;;;3.30;99.90;;;;;;4950872;28;20355;-83
2022/01/20 02:28:23;;;;;;;988.47;395.38;;;3.20;99.90;;;;;;4965303;28;20050;-85
2022/01/20 06:44:42;;;;;;;947.00;377.90;;;2.60;99.90;;;;;;5912454;23;20057;-84
2022/01/20 06:47:08;;;;;;;965.72;389.88;;;2.60;99.90;;;;;;4961409;28;20074;-85
2022/01/20 06:49:34;;;;;;;955.25;383.42;;;2.50;99.90;;;;;;4959864;28;20254;-83
2022/01/20 06:52:00;;;;;;;965.17;387.52;;;2.40;99.90;;;;;;4955249;28;20074;-86
2022/01/20 06:54:25;;;;;;;945.15;367.45;;;2.40;99.90;;;;;;4967132;28;20073;-85
2022/01/20 06:56:51;;;;;;;955.45;388.17;;;2.40;99.90;;;;;;4960326;28;20050;-85
2022/01/20 06:59:17;;;;;;;961.83;389.80;;;2.30;99.90;;;;;;4959886;28;20049;-84
2022/01/20 07:01:45;;;;;;;946.08;378.75;;;2.30;99.90;;;;;;4965262;28;20055;-85
2022/01/20 07:04:13;;;;;;;957.15;386.50;;;2.30;99.90;;;;;;4960225;28;20488;-83
2022/01/20 07:06:39;;;;;;;952.35;379.27;;;2.30;99.90;;;;;;4961709;28;20034;-85
2022/01/20 07:09:08;;;;;;;939.72;374.40;;;2.30;99.90;;;;;;4966820;28;20110;-86
2022/01/20 07:11:34;;;;;;;937.45;368.10;;;2.30;99.90;;;;;;4963430;28;20072;-85
2022/01/20 07:13:59;;;;;;;961.35;393.55;;;2.30;99.90;;;;;;4961875;28;20058;-84
2022/01/20 07:16:25;;;;;;;947.30;373.25;;;2.40;99.90;;;;;;4984098;28;20112;-85
2022/01/20 07:18:51;;;;;;;959.40;385.77;;;2.30;99.90;;;;;;4964642;28;20479;-85
2022/01/20 07:21:20;;;;;;;938.63;374.77;;;2.40;99.90;;;;;;4973397;28;20043;-83
2022/01/20 07:23:46;;;;;;;929.28;362.95;;;2.50;99.90;;;;;;4970417;28;20038;-85
2022/01/20 07:44:20;;;;;;;957.40;386.25;;;2.40;99.90;;;;;;4990536;23;20569;-86
2022/01/20 07:46:47;;;;;;;962.08;391.80;;;2.40;99.90;;;;;;4931231;28;20045;-83
2022/01/20 07:49:14;;;;;;;927.47;362.48;;;2.30;99.90;;;;;;4935452;29;20070;-87
2022/01/20 07:51:40;;;;;;;930.85;371.52;;;2.10;99.90;;;;;;4936061;28;20483;-86
2022/01/20 07:54:06;;;;;;;922.88;362.65;;;2.50;99.90;;;;;;4957739;28;20130;-85
2022/01/20 11:46:13;;;;;;;1096.75;446.92;;;8.20;98.30;;;;;;6160952;23;20039;31
2022/01/20 11:48:59;;;;;;;1067.40;427.40;;;7.20;99.90;;;;;;4970147;28;20750;-87
2022/01/20 11:51:40;;;;;;;1071.28;426.90;;;6.80;99.90;;;;;;5003316;28;20033;-86
2022/01/20 11:54:07;;;;;;;1062.47;430.13;;;7.20;99.90;;;;;;4987288;28;20500;-88
2022/01/20 11:56:40;;;;;;;1059.55;430.20;;;7.00;99.90;;;;;;4978746;28;20093;-89
2022/01/20 11:59:09;;;;;;;1041.68;416.02;;;6.70;99.90;;;;;;4997723;28;20076;-88
2022/01/20 12:01:51;;;;;;;1038.30;412.15;;;6.60;99.90;;;;;;4977434;28;20045;-87
2022/01/20 12:04:18;;;;;;;1038.57;415.92;;;6.00;99.90;;;;;;4976992;28;20050;-89
2022/01/20 12:06:47;;;;;;;1040.60;421.67;;;5.70;99.90;;;;;;4967816;28;20043;-88
2022/01/20 12:09:14;;;;;;;1023.95;410.77;;;5.30;99.90;;;;;;4962248;28;20141;-86
2022/01/20 12:11:46;;;;;;;1044.97;430.25;;;4.90;99.90;;;;;;4959748;28;20079;-89
2022/01/20 12:14:13;;;;;;;1055.10;436.80;;;4.70;99.90;;;;;;4983313;28;20116;-86
2022/01/20 12:16:43;;;;;;;1042.00;424.13;;;4.50;99.90;;;;;;4966675;28;20050;-84
2022/01/20 12:42:23;;;;;;;1044.00;438.90;;;4.20;99.90;;;;;;6091732;23;20017;-87
2022/01/20 12:45:00;;;;;;;1034.60;419.75;;;4.30;99.90;;;;;;4901381;29;20070;-87
2022/01/20 12:47:30;;;;;;;1041.18;433.10;;;4.40;99.90;;;;;;4929195;29;20045;-88
2022/01/20 12:49:58;;;;;;;1033.95;428.52;;;4.30;99.90;;;;;;4939684;29;20142;-87
2022/01/20 12:52:24;;;;;;;1035.80;429.95;;;4.30;99.90;;;;;;4923206;29;20142;-86
2022/01/20 12:54:50;;;;;;;1033.85;426.48;;;4.30;99.90;;;;;;4924012;29;20063;-88
2022/01/20 12:57:17;;;;;;;1034.10;424.38;;;4.40;99.90;;;;;;4939425;29;20057;-87
2022/01/20 12:59:44;;;;;;;1027.15;421.25;;;4.40;99.90;;;;;;4940929;29;20054;-84
2022/01/20 13:02:25;;;;;;;1043.90;433.83;;;4.30;99.90;;;;;;4928472;29;20043;-89
2022/01/20 13:05:00;;;;;;;1037.88;429.05;;;4.40;99.90;;;;;;4942504;29;20158;-86
2022/01/20 13:07:27;;;;;;;1025.25;418.42;;;4.40;99.90;;;;;;4937997;29;20047;-86
2022/01/20 13:10:06;;;;;;;997.83;397.98;;;4.40;99.90;;;;;;4930704;29;20052;-88
2022/01/20 13:12:39;;;;;;;987.30;395.85;;;4.00;99.90;;;;;;4906210;29;20046;-90
2022/01/20 13:15:23;;;;;;;973.38;384.30;;;3.70;99.90;;;;;;4927073;29;20611;-87
2022/01/20 13:18:21;;;;;;;982.33;390.30;;;3.40;99.90;;;;;;4923567;29;20449;-88
2022/01/20 13:20:58;;;;;;;979.00;392.45;;;3.20;99.90;;;;;;4870764;29;20068;-87
2022/01/20 22:01:22;;;;;;;1011.67;426.75;;;2.40;99.90;;;;;;4001958;23;20336;-80
2022/01/20 22:03:48;;;;;;;1001.05;416.27;;;2.40;99.90;;;;;;4924368;29;20079;-86
2022/01/20 22:06:13;;;;;;;1009.10;423.95;;;2.10;99.90;;;;;;4933073;29;20153;-82
2022/01/20 22:08:40;;;;;;;1005.97;419.92;;;2.70;99.90;;;;;;4928245;29;20047;-82
2022/01/20 22:11:07;;;;;;;990.85;406.90;;;3.20;99.90;;;;;;4932207;29;20062;-83
2022/01/20 22:51:57;;;;;;;1026.47;432.98;;;2.50;99.90;;;;;;5980185;23;20026;-84
2022/01/20 22:54:25;;;;;;;994.25;408.38;;;2.50;99.90;;;;;;4943571;28;20046;-82
